Terminal Aerodrome Forecast
Issued by NWS Charleston, WV

Current Version | Previous Version | Text Only | Print | Product List | Glossary Off
Versions: 1 2 3 4 5 6 7 8 9 10 11 12 13 14 15 16 17 18 19 20 21 22 23 24

680
FTUS41 KRLX 170301 AAA
TAFHTS
TAF AMD
KHTS 170301Z 1703/1724 01003KT 3SM -RA BR FEW045 FEW060 OVC080
     FM170700 17004KT P6SM OVC030
     FM170800 17005KT 2SM -SHRA OVC026
     FM171000 18005KT 4SM -SHRA OVC009
     FM171500 20008KT 5SM -SHRA OVC017
     FM171600 20008G16KT 6SM -SHRA OVC022
     FM171900 22009G17KT P6SM OVC030
     FM172200 23008KT P6SM OVC060=

USA.gov is the U.S. government's official web portal to all federal, state and local government web resources and services.